Time;durP1;ratioP1;P1;durP2;ratioP2;P2;SDS_P1;SDS_P2;PMS_P1;PMS_P2;Temp;Humidity;BMP_temperature;BMP_pressure;BME280_temperature;BME280_humidity;BME280_pressure;Samples;Min_cycle;Max_cycle;Signal;HPM_P1;HPM_P2
2023/08/10 00:01:18;;;;;;;2.20;1.90;;;;;;;20.44;59.29;95192.31;4935587;28;20237;-74
2023/08/10 00:03:44;;;;;;;1.90;1.53;;;;;;;20.40;59.77;95198.34;4946502;28;20229;-74
2023/08/10 00:06:10;;;;;;;2.90;1.80;;;;;;;20.41;59.76;95194.66;4935590;28;20658;-74
2023/08/10 00:08:36;;;;;;;2.57;1.70;;;;;;;20.35;60.11;95201.00;4927664;29;20264;-75
2023/08/10 00:11:02;;;;;;;2.93;1.67;;;;;;;20.41;59.90;95192.81;4933649;28;20703;-74
2023/08/10 00:13:27;;;;;;;3.80;1.77;;;;;;;20.50;59.76;95198.44;4934954;28;20237;-74
2023/08/10 00:15:53;;;;;;;2.17;1.70;;;;;;;20.50;59.94;95195.78;4930657;28;20230;-73
2023/08/10 00:18:19;;;;;;;2.27;1.70;;;;;;;20.44;59.96;95199.47;4978146;28;20252;-74
2023/08/10 00:20:44;;;;;;;7.03;1.80;;;;;;;20.40;60.58;95193.84;4920762;28;20229;-75
2023/08/10 00:23:11;;;;;;;1.90;1.70;;;;;;;20.30;61.15;95191.09;4926407;29;20690;-74
2023/08/10 00:25:36;;;;;;;3.47;1.80;;;;;;;20.38;60.51;95195.97;4932684;29;20226;-75
2023/08/10 00:28:02;;;;;;;1.70;1.60;;;;;;;20.36;60.45;95195.44;4977280;28;20375;-74
2023/08/10 00:30:28;;;;;;;2.27;1.60;;;;;;;20.37;60.55;95199.66;4930377;29;20226;-74
2023/08/10 00:32:53;;;;;;;2.33;1.60;;;;;;;20.39;60.24;95194.94;4930755;29;20264;-74
2023/08/10 00:35:19;;;;;;;1.73;1.60;;;;;;;20.37;60.89;95189.03;4934011;28;20311;-74
2023/08/10 00:37:44;;;;;;;1.70;1.60;;;;;;;20.37;61.12;95180.28;4922191;29;20233;-73
2023/08/10 00:40:12;;;;;;;2.17;1.40;;;;;;;20.33;60.65;95172.00;4920643;29;20355;-75
2023/08/10 00:42:39;;;;;;;6.97;1.80;;;;;;;20.33;60.75;95176.50;4973159;28;20243;-74
2023/08/10 00:45:05;;;;;;;1.60;1.50;;;;;;;20.42;60.32;95167.03;4917898;28;20244;-75
2023/08/10 00:47:30;;;;;;;2.03;1.50;;;;;;;20.41;60.73;95176.03;4973278;28;20344;-75
2023/08/10 00:49:56;;;;;;;3.43;1.67;;;;;;;20.35;60.46;95171.75;4931968;28;20244;-74
2023/08/10 00:52:21;;;;;;;2.67;1.77;;;;;;;20.31;61.05;95173.28;4935415;29;20234;-75
2023/08/10 00:54:48;;;;;;;1.90;1.70;;;;;;;20.28;61.14;95166.63;4931853;29;20234;-74
2023/08/10 00:57:13;;;;;;;3.00;1.70;;;;;;;20.33;61.20;95172.00;4924022;29;20241;-75
2023/08/10 00:59:39;;;;;;;1.87;1.50;;;;;;;20.25;61.38;95169.00;4931498;29;20237;-74
2023/08/10 01:02:04;;;;;;;2.70;1.70;;;;;;;20.31;60.60;95165.31;4931356;29;20241;-74
2023/08/10 01:04:30;;;;;;;1.93;1.60;;;;;;;20.35;60.55;95169.09;4920372;29;20320;-71
2023/08/10 01:07:12;;;;;;;2.67;1.70;;;;;;;20.33;60.55;95164.00;5004219;28;20241;-70
2023/08/10 01:10:04;;;;;;;3.30;1.60;;;;;;;20.33;60.86;95164.00;4962905;28;20255;-69
2023/08/10 01:12:53;;;;;;;3.47;1.67;;;;;;;20.23;61.18;95168.47;4989099;28;20413;-70
2023/08/10 01:15:22;;;;;;;1.67;1.57;;;;;;;20.22;60.95;95167.66;4980616;28;20236;-70
2023/08/10 01:17:51;;;;;;;2.13;1.60;;;;;;;20.23;60.73;95160.50;4917157;28;20244;-69
2023/08/10 01:20:17;;;;;;;4.17;1.80;;;;;;;20.32;60.59;95165.09;4932050;28;20241;-69
2023/08/10 01:22:57;;;;;;;3.67;1.50;;;;;;;20.30;60.52;95161.84;4931540;29;20264;-69
2023/08/10 01:25:25;;;;;;;3.30;1.80;;;;;;;20.28;60.79;95168.47;4942867;29;20243;-69
2023/08/10 01:27:51;;;;;;;1.73;1.63;;;;;;;20.26;60.95;95160.78;4941159;28;20272;-68
2023/08/10 01:30:17;;;;;;;1.70;1.47;;;;;;;20.24;61.34;95167.38;4915232;28;20245;-69
2023/08/10 01:32:44;;;;;;;2.17;1.50;;;;;;;20.27;61.07;95156.25;4955929;28;20248;-69
2023/08/10 01:35:10;;;;;;;1.77;1.48;;;;;;;20.31;61.43;95167.97;4927137;29;20335;-71
2023/08/10 01:37:36;;;;;;;3.17;1.50;;;;;;;20.21;61.61;95159.88;4990167;28;20661;-70
2023/08/10 01:40:06;;;;;;;1.73;1.50;;;;;;;20.27;62.14;95156.25;4915513;29;20250;-70
2023/08/10 01:42:32;;;;;;;2.30;1.47;;;;;;;20.21;61.93;95170.50;4932864;29;20621;-68
2023/08/10 01:44:58;;;;;;;1.70;1.60;;;;;;;20.17;62.18;95167.56;4923399;29;20234;-68
2023/08/10 01:47:36;;;;;;;3.80;1.80;;;;;;;20.20;62.14;95164.41;4933057;29;20633;-67
2023/08/10 01:50:03;;;;;;;2.37;1.53;;;;;;;20.22;62.09;95166.81;4938630;28;20293;-69
2023/08/10 01:52:33;;;;;;;2.07;1.60;;;;;;;20.16;61.69;95173.94;4920863;29;20271;-69
2023/08/10 01:54:58;;;;;;;3.77;1.60;;;;;;;20.07;62.37;95178.91;4973498;28;20233;-68
2023/08/10 01:57:24;;;;;;;1.90;1.70;;;;;;;20.12;62.55;95173.66;4937087;28;20240;-68
2023/08/10 01:59:50;;;;;;;2.70;1.60;;;;;;;20.13;62.53;95174.47;4931799;29;20636;-69
2023/08/10 02:02:16;;;;;;;1.67;1.57;;;;;;;20.16;62.72;95171.28;4920211;29;20232;-68
2023/08/10 02:04:44;;;;;;;3.43;1.77;;;;;;;20.20;62.45;95168.94;4947258;28;20233;-70
2023/08/10 02:07:09;;;;;;;2.30;1.80;;;;;;;20.17;62.79;95171.03;4965053;28;20271;-68
2023/08/10 02:09:35;;;;;;;2.10;1.53;;;;;;;20.13;62.99;95167.25;4953002;28;21022;-68
2023/08/10 02:12:01;;;;;;;3.77;1.70;;;;;;;19.98;62.44;95172.47;4937380;28;20633;-69
2023/08/10 02:14:27;;;;;;;3.00;1.70;;;;;;;20.00;63.10;95167.69;4931904;29;20237;-69
2023/08/10 02:16:52;;;;;;;3.27;1.60;;;;;;;20.03;62.71;95172.50;4904079;28;20253;-69
2023/08/10 02:19:18;;;;;;;3.07;1.70;;;;;;;20.06;62.46;95166.66;4960774;28;20272;-68
2023/08/10 02:21:43;;;;;;;1.70;1.60;;;;;;;20.09;62.38;95181.31;4939384;28;20264;-69
2023/08/10 02:24:09;;;;;;;2.83;1.53;;;;;;;20.07;62.09;95181.56;4943281;28;20613;-70
2023/08/10 02:26:35;;;;;;;1.87;1.60;;;;;;;20.00;62.98;95183.63;4931887;28;20237;-68
2023/08/10 02:29:00;;;;;;;2.00;1.60;;;;;;;19.97;62.94;95186.78;4917162;29;20637;-68
2023/08/10 02:31:26;;;;;;;4.27;1.73;;;;;;;20.00;63.18;95196.13;4923372;28;20236;-70
2023/08/10 02:33:52;;;;;;;3.07;1.40;;;;;;;20.05;62.32;95210.25;4930859;29;20243;-69
2023/08/10 02:36:17;;;;;;;2.43;1.63;;;;;;;20.03;63.53;95216.88;4930422;28;20727;-70
2023/08/10 02:38:43;;;;;;;3.60;1.70;;;;;;;19.90;64.65;95239.31;4926599;29;20244;-70
2023/08/10 02:41:09;;;;;;;2.83;1.70;;;;;;;19.92;64.85;95236.41;4931752;28;20241;-70
2023/08/10 02:43:35;;;;;;;2.43;1.70;;;;;;;19.95;65.93;95244.69;4974073;28;20238;-69
2023/08/10 02:46:01;;;;;;;2.70;1.70;;;;;;;19.83;70.19;95253.84;4937344;28;20324;-70
2023/08/10 02:48:26;;;;;;;4.50;1.70;;;;;;;19.18;76.35;95249.28;4903341;28;20226;-70
2023/08/10 02:50:52;;;;;;;2.90;1.80;;;;;;;18.83;81.06;95254.88;4929980;28;20233;-70
2023/08/10 02:53:17;;;;;;;4.63;2.00;;;;;;;18.38;84.04;95258.63;4942630;28;20291;-69
2023/08/10 02:55:43;;;;;;;5.23;1.90;;;;;;;18.49;86.27;95265.72;5004772;28;20224;-69
2023/08/10 02:58:10;;;;;;;3.20;1.90;;;;;;;18.18;87.76;95275.75;4965815;28;20225;-70
2023/08/10 03:00:36;;;;;;;7.33;2.10;;;;;;;18.51;86.48;95279.56;4948910;28;20237;-70
2023/08/10 03:03:02;;;;;;;4.67;2.00;;;;;;;18.47;86.07;95294.31;4962211;28;20237;-70
2023/08/10 03:05:27;;;;;;;8.30;2.30;;;;;;;18.46;89.61;95292.72;4944362;28;20294;-71
2023/08/10 03:07:53;;;;;;;7.00;2.00;;;;;;;18.17;89.95;95303.28;4954670;28;20302;-71
2023/08/10 03:10:18;;;;;;;6.13;2.27;;;;;;;18.08;92.69;95298.59;4945024;28;20237;-72
2023/08/10 03:12:44;;;;;;;6.33;2.30;;;;;;;17.93;94.70;95290.38;4932240;28;20315;-71
2023/08/10 03:15:11;;;;;;;8.37;2.50;;;;;;;17.93;97.48;95293.03;4959897;28;20615;-72
2023/08/10 03:17:37;;;;;;;9.57;2.97;;;;;;;18.08;97.58;95295.94;4915331;29;20264;-70
2023/08/10 03:20:06;;;;;;;5.73;2.50;;;;;;;18.00;96.61;95289.22;4930784;28;20264;-71
2023/08/10 03:22:32;;;;;;;6.60;2.60;;;;;;;17.77;100.00;95285.84;4943346;28;20260;-73
2023/08/10 03:24:59;;;;;;;5.43;2.50;;;;;;;17.70;100.00;95283.31;4930515;28;20244;-74
2023/08/10 03:27:25;;;;;;;7.03;2.43;;;;;;;17.47;100.00;95278.03;4933151;29;20240;-73
2023/08/10 03:29:51;;;;;;;6.87;2.70;;;;;;;17.38;100.00;95277.59;4932348;29;20328;-73
2023/08/10 03:32:16;;;;;;;6.33;2.73;;;;;;;17.41;100.00;95269.19;4923868;28;20237;-72
2023/08/10 03:34:42;;;;;;;5.23;2.50;;;;;;;17.48;100.00;95272.50;4933467;28;20241;-73
2023/08/10 03:37:07;;;;;;;4.67;2.70;;;;;;;17.52;100.00;95272.06;4922979;29;20233;-72
2023/08/10 03:39:33;;;;;;;4.80;2.40;;;;;;;17.47;100.00;95262.16;4906465;28;21079;-71
2023/08/10 03:41:58;;;;;;;3.53;2.40;;;;;;;17.17;100.00;95259.66;4906108;28;21208;-71
2023/08/10 03:44:23;;;;;;;6.70;2.60;;;;;;;17.19;100.00;95260.25;4947276;28;20971;-70
2023/08/10 03:46:53;;;;;;;4.47;2.57;;;;;;;17.30;100.00;95270.00;4930558;28;20233;-71
2023/08/10 03:49:19;;;;;;;3.30;2.27;;;;;;;17.44;100.00;95274.00;5001159;28;20251;-70
2023/08/10 03:51:45;;;;;;;3.87;2.60;;;;;;;17.73;100.00;95287.31;4939925;28;20797;-70
2023/08/10 03:54:11;;;;;;;4.20;2.27;;;;;;;17.44;100.00;95289.06;4918294;28;20240;-75
2023/08/10 03:56:37;;;;;;;3.60;2.43;;;;;;;17.55;100.00;95290.94;4935739;28;20241;-75
2023/08/10 03:59:04;;;;;;;4.63;2.30;;;;;;;17.51;100.00;95300.34;4932919;28;20255;-75
2023/08/10 04:01:30;;;;;;;6.10;2.70;;;;;;;17.69;100.00;95310.03;4948704;28;21028;-75
2023/08/10 04:03:56;;;;;;;4.63;2.80;;;;;;;17.71;100.00;95314.03;4950179;28;20241;-74
2023/08/10 04:06:22;;;;;;;5.20;2.53;;;;;;;17.91;100.00;95318.94;4932027;28;20290;-75
2023/08/10 04:08:48;;;;;;;5.27;2.63;;;;;;;18.03;100.00;95319.72;4926300;28;20237;-74
2023/08/10 04:11:14;;;;;;;6.63;2.83;;;;;;;18.03;100.00;95325.03;4935079;28;20249;-74
2023/08/10 04:13:40;;;;;;;4.60;2.73;;;;;;;18.01;100.00;95329.72;4932928;28;20232;-74
2023/08/10 04:16:06;;;;;;;4.23;2.90;;;;;;;17.72;100.00;95322.81;4949946;28;20240;-74
2023/08/10 04:18:31;;;;;;;5.17;2.80;;;;;;;17.32;100.00;95318.22;4948911;28;20238;-75
2023/08/10 04:20:57;;;;;;;4.23;2.60;;;;;;;17.29;100.00;95318.66;4917515;28;20294;-75
2023/08/10 04:23:23;;;;;;;5.53;2.90;;;;;;;17.35;100.00;95319.59;4949035;28;20698;-75
2023/08/10 04:25:49;;;;;;;4.13;2.80;;;;;;;17.37;100.00;95326.25;4944809;28;20260;-76
2023/08/10 04:28:15;;;;;;;4.47;2.73;;;;;;;17.63;100.00;95324.97;4947168;28;20229;-74
2023/08/10 04:30:41;;;;;;;7.07;3.10;;;;;;;17.88;100.00;95343.25;4931166;28;20625;-75
2023/08/10 04:33:06;;;;;;;6.37;3.10;;;;;;;17.87;100.00;95349.56;4936773;29;20228;-73
2023/08/10 04:35:32;;;;;;;8.47;3.13;;;;;;;17.92;100.00;95358.44;4954065;28;20245;-71
2023/08/10 04:37:58;;;;;;;8.67;3.10;;;;;;;17.91;100.00;95363.97;4945211;28;20240;-72
2023/08/10 04:40:24;;;;;;;9.03;3.43;;;;;;;17.95;100.00;95373.06;4933673;28;20307;-73
2023/08/10 04:42:50;;;;;;;9.47;3.73;;;;;;;17.90;100.00;95378.25;4919991;28;20240;-74
2023/08/10 04:45:16;;;;;;;6.93;3.30;;;;;;;17.87;100.00;95371.56;4942899;28;20241;-74
2023/08/10 04:47:42;;;;;;;7.33;3.40;;;;;;;17.63;100.00;95367.34;4933100;28;20693;-75
2023/08/10 04:50:08;;;;;;;6.50;3.47;;;;;;;17.76;100.00;95371.59;4938012;28;20798;-74
2023/08/10 04:52:33;;;;;;;7.10;3.23;;;;;;;17.76;100.00;95371.59;4948182;28;20320;-75
2023/08/10 04:54:59;;;;;;;6.53;3.53;;;;;;;17.72;100.00;95378.41;4953483;28;20411;-75
2023/08/10 04:57:24;;;;;;;8.73;3.50;;;;;;;17.79;100.00;95381.72;4934914;28;20244;-74
2023/08/10 04:59:50;;;;;;;6.07;3.40;;;;;;;17.75;100.00;95376.09;4949956;28;20232;-75
2023/08/10 05:02:16;;;;;;;11.73;5.50;;;;;;;17.63;100.00;95370.00;4932018;28;20661;-75
2023/08/10 05:04:41;;;;;;;7.57;3.63;;;;;;;17.51;100.00;95369.16;4931795;28;20241;-75
2023/08/10 05:07:07;;;;;;;5.57;3.33;;;;;;;17.28;100.00;95364.69;4963243;28;20232;-74
2023/08/10 05:09:32;;;;;;;5.50;3.43;;;;;;;17.43;100.00;95366.88;4925887;28;20248;-76
2023/08/10 05:11:58;;;;;;;9.97;4.17;;;;;;;17.72;100.00;95365.94;4960427;28;20248;-75
2023/08/10 05:14:24;;;;;;;10.40;4.03;;;;;;;17.82;100.00;95370.66;4949204;28;20748;-75
2023/08/10 05:16:49;;;;;;;7.57;4.00;;;;;;;17.78;100.00;95372.16;4940644;28;20284;-74
2023/08/10 05:19:15;;;;;;;11.93;4.40;;;;;;;17.84;100.00;95363.31;4932308;28;20232;-74
2023/08/10 05:21:40;;;;;;;13.63;4.77;;;;;;;17.67;100.00;95367.69;4966172;28;20255;-74
2023/08/10 05:24:06;;;;;;;7.70;4.43;;;;;;;17.76;100.00;95356.53;4945145;28;20296;-76
2023/08/10 05:26:33;;;;;;;12.60;4.27;;;;;;;17.62;100.00;95357.81;4948267;28;20249;-75
2023/08/10 05:28:59;;;;;;;29.90;5.63;;;;;;;17.82;100.00;95355.56;4926678;28;20241;-76
2023/08/10 05:31:25;;;;;;;7.43;4.20;;;;;;;17.56;100.00;95355.25;4933330;28;21022;-77
2023/08/10 05:33:51;;;;;;;8.20;4.33;;;;;;;17.44;100.00;95348.13;4947974;28;20241;-77
2023/08/10 05:36:17;;;;;;;9.10;3.83;;;;;;;17.34;100.00;95347.88;4939349;28;20307;-78
2023/08/10 05:38:42;;;;;;;7.77;4.10;;;;;;;17.53;100.00;95350.44;4936858;28;20850;-77
2023/08/10 05:41:08;;;;;;;5.93;3.63;;;;;;;17.51;100.00;95347.97;4936699;28;20260;-75
2023/08/10 05:43:33;;;;;;;7.27;3.70;;;;;;;17.52;100.00;95349.63;4933911;28;20229;-75
2023/08/10 05:45:59;;;;;;;6.80;3.27;;;;;;;17.29;100.00;95349.63;4939426;28;20254;-72
2023/08/10 05:48:25;;;;;;;7.47;3.67;;;;;;;17.29;100.00;95347.75;4931776;28;20237;-72
2023/08/10 05:50:50;;;;;;;4.87;3.50;;;;;;;17.40;100.00;95331.09;4919223;28;20241;-72
2023/08/10 05:53:16;;;;;;;4.90;3.57;;;;;;;17.48;100.00;95320.13;4933035;28;20323;-71
2023/08/10 05:55:42;;;;;;;7.37;4.00;;;;;;;17.55;100.00;95316.59;4922468;28;20245;-72
2023/08/10 05:58:08;;;;;;;8.63;3.83;;;;;;;17.41;100.00;95326.63;4944368;28;20261;-78
2023/08/10 06:00:33;;;;;;;9.77;4.30;;;;;;;17.25;100.00;95336.03;4937988;28;20697;-77
2023/08/10 06:02:59;;;;;;;7.17;3.93;;;;;;;17.39;100.00;95348.00;4931704;28;20248;-77
2023/08/10 06:05:24;;;;;;;5.87;3.70;;;;;;;17.26;100.00;95350.09;4931506;28;20248;-77
2023/08/10 06:07:50;;;;;;;10.17;3.83;;;;;;;17.22;100.00;95347.06;4961693;28;20666;-77
2023/08/10 06:10:16;;;;;;;7.40;4.00;;;;;;;17.14;100.00;95342.16;4965164;28;20280;-77
2023/08/10 06:12:42;;;;;;;9.27;4.10;;;;;;;17.16;100.00;95334.78;4917857;28;20230;-77
2023/08/10 06:15:09;;;;;;;6.63;3.60;;;;;;;17.09;100.00;95338.56;4934428;28;20323;-77
2023/08/10 06:17:36;;;;;;;8.90;3.53;;;;;;;17.10;100.00;95335.69;4963265;28;20242;-78
2023/08/10 06:20:09;;;;;;;6.57;3.60;;;;;;;17.09;100.00;95326.16;4932756;28;20240;-76
2023/08/10 06:22:38;;;;;;;6.13;3.60;;;;;;;17.04;100.00;95335.81;4934294;29;21019;-77
2023/08/10 06:25:04;;;;;;;5.20;3.47;;;;;;;17.02;100.00;95332.59;4918129;28;20233;-78
2023/08/10 06:27:31;;;;;;;6.27;3.60;;;;;;;17.05;100.00;95342.72;4931393;28;20279;-77
2023/08/10 06:29:57;;;;;;;6.23;3.60;;;;;;;17.00;100.00;95340.75;4932504;28;20792;-76
2023/08/10 06:32:23;;;;;;;5.60;3.60;;;;;;;17.16;100.00;95347.19;4945375;28;20229;-77
2023/08/10 06:34:48;;;;;;;6.23;3.77;;;;;;;17.09;100.00;95349.16;4931024;28;20225;-78
2023/08/10 06:37:16;;;;;;;5.90;3.83;;;;;;;17.19;100.00;95347.56;4913180;28;20248;-79
2023/08/10 06:39:42;;;;;;;7.73;4.00;;;;;;;17.33;100.00;95362.16;4947820;28;20241;-77
2023/08/10 06:42:08;;;;;;;8.97;4.23;;;;;;;17.23;100.00;95359.28;4932335;28;20230;-76
2023/08/10 06:44:33;;;;;;;7.60;4.43;;;;;;;17.27;100.00;95359.63;4929797;28;20789;-77
2023/08/10 06:46:59;;;;;;;6.33;4.00;;;;;;;17.24;100.00;95352.94;4933992;28;20750;-76
2023/08/10 06:49:25;;;;;;;7.57;4.40;;;;;;;17.09;100.00;95360.53;4932902;28;20230;-76
2023/08/10 06:51:51;;;;;;;6.70;3.70;;;;;;;17.13;100.00;95360.88;4939371;28;20298;-74
2023/08/10 06:54:18;;;;;;;7.63;3.90;;;;;;;17.23;100.00;95363.75;4932868;28;20221;-75
2023/08/10 06:56:46;;;;;;;6.30;3.70;;;;;;;17.00;100.00;95369.03;4939460;28;20241;-76
2023/08/10 06:59:14;;;;;;;4.87;3.60;;;;;;;17.21;100.00;95369.28;4965314;28;20315;-76
2023/08/10 07:01:39;;;;;;;6.00;3.30;;;;;;;17.16;100.00;95384.22;4932214;28;20634;-75
2023/08/10 07:04:05;;;;;;;6.47;3.20;;;;;;;17.00;100.00;95388.38;4930364;28;20236;-75
2023/08/10 07:06:31;;;;;;;6.20;3.20;;;;;;;17.20;100.00;95388.03;4945300;28;20348;-76
2023/08/10 07:08:57;;;;;;;4.13;3.20;;;;;;;17.21;100.00;95377.22;4909274;28;20771;-75
2023/08/10 07:11:22;;;;;;;4.70;3.83;;;;;;;17.18;100.00;95384.81;4936397;28;20229;-76
2023/08/10 07:13:49;;;;;;;5.70;3.70;;;;;;;17.23;100.00;95390.22;4939580;28;20241;-75
2023/08/10 07:16:15;;;;;;;5.03;3.40;;;;;;;17.38;100.00;95380.81;4907417;29;20233;-74
2023/08/10 07:18:41;;;;;;;4.03;3.23;;;;;;;17.21;100.00;95390.47;4945155;28;20233;-74
2023/08/10 07:21:07;;;;;;;4.33;3.30;;;;;;;17.31;100.00;95392.53;4935309;28;20621;-74
2023/08/10 07:23:32;;;;;;;4.77;3.53;;;;;;;17.43;100.00;95380.91;4961561;28;20236;-75
2023/08/10 07:25:58;;;;;;;4.60;3.13;;;;;;;17.27;100.00;95386.06;4948663;28;20236;-76
2023/08/10 07:28:23;;;;;;;4.73;3.07;;;;;;;17.39;100.00;95387.69;4970848;28;20272;-75
2023/08/10 07:30:52;;;;;;;5.53;3.90;;;;;;;17.40;100.00;95384.03;4947028;28;20233;-76
2023/08/10 07:33:19;;;;;;;4.47;3.30;;;;;;;17.37;100.00;95387.13;4951209;28;20252;-75
2023/08/10 07:35:45;;;;;;;5.63;3.10;;;;;;;17.39;100.00;95392.97;4949239;28;20229;-76
2023/08/10 07:38:14;;;;;;;5.17;3.13;;;;;;;17.45;100.00;95389.44;4934806;29;20236;-76
2023/08/10 07:40:40;;;;;;;4.00;3.10;;;;;;;17.53;100.00;95390.16;4932632;28;20243;-75
2023/08/10 07:43:05;;;;;;;4.77;3.13;;;;;;;17.52;100.00;95392.00;4967010;28;20229;-74
2023/08/10 07:45:31;;;;;;;4.57;2.80;;;;;;;17.65;100.00;95396.25;4943266;28;20240;-76
2023/08/10 07:47:57;;;;;;;4.53;3.33;;;;;;;17.56;100.00;95393.13;4936771;28;20248;-77
2023/08/10 07:50:22;;;;;;;4.10;3.13;;;;;;;17.69;100.00;95392.09;4932635;28;20237;-77
2023/08/10 07:52:48;;;;;;;7.10;3.07;;;;;;;17.80;100.00;95399.22;4950813;28;20241;-76
2023/08/10 07:55:15;;;;;;;4.30;3.10;;;;;;;17.84;100.00;95400.38;4941540;28;20234;-77
2023/08/10 07:57:41;;;;;;;5.27;3.10;;;;;;;17.90;100.00;95405.53;4936783;28;20261;-76
2023/08/10 08:00:10;;;;;;;5.33;3.10;;;;;;;17.75;100.00;95399.09;4933297;28;20252;-75
2023/08/10 08:02:36;;;;;;;5.57;3.20;;;;;;;17.81;100.00;95408.78;4938403;28;20238;-77
2023/08/10 08:05:02;;;;;;;5.17;3.40;;;;;;;17.88;100.00;95402.31;4935235;28;20305;-77
2023/08/10 08:07:30;;;;;;;6.50;3.93;;;;;;;17.94;100.00;95405.88;4949663;28;20559;-76
2023/08/10 08:09:57;;;;;;;5.10;3.50;;;;;;;17.94;100.00;95390.78;4933925;28;20239;-77
2023/08/10 08:12:22;;;;;;;5.63;3.60;;;;;;;17.97;100.00;95395.63;4953478;28;20759;-75
2023/08/10 08:14:48;;;;;;;4.63;3.67;;;;;;;18.09;100.00;95387.66;4957279;28;20243;-75
2023/08/10 08:17:14;;;;;;;6.37;3.33;;;;;;;18.26;100.00;95388.53;4951204;28;20241;-75
2023/08/10 08:19:40;;;;;;;5.33;2.60;;;;;;;18.10;100.00;95395.34;4936533;28;20229;-76
2023/08/10 08:22:05;;;;;;;3.93;2.37;;;;;;;17.85;100.00;95401.97;4945603;28;20319;-75
2023/08/10 08:24:31;;;;;;;3.70;2.40;;;;;;;17.82;100.00;95400.59;4937713;28;20324;-75
2023/08/10 08:26:57;;;;;;;2.73;2.30;;;;;;;17.86;100.00;95404.41;4955225;28;20733;-75
2023/08/10 08:29:23;;;;;;;3.33;2.63;;;;;;;17.87;100.00;95410.50;4939212;28;20240;-75
2023/08/10 08:31:49;;;;;;;4.67;2.53;;;;;;;17.86;100.00;95399.09;4943010;28;20247;-75
2023/08/10 08:34:15;;;;;;;2.93;2.63;;;;;;;17.76;100.00;95406.84;4935789;28;20229;-75
2023/08/10 08:36:41;;;;;;;3.10;2.30;;;;;;;17.91;100.00;95407.13;4950376;28;20727;-75
2023/08/10 08:39:07;;;;;;;4.90;3.47;;;;;;;18.05;100.00;95397.94;4949838;28;20256;-75
2023/08/10 08:41:36;;;;;;;4.57;3.00;;;;;;;18.14;100.00;95399.16;4952704;28;20241;-75
2023/08/10 08:44:05;;;;;;;4.60;2.67;;;;;;;18.18;100.00;95402.94;4943109;28;20714;-76
2023/08/10 08:46:32;;;;;;;4.20;2.53;;;;;;;18.23;100.00;95386.34;4937123;28;20242;-75
2023/08/10 08:48:58;;;;;;;4.23;2.30;;;;;;;18.46;99.19;95399.53;4936385;28;20228;-75
2023/08/10 08:51:24;;;;;;;3.20;2.90;;;;;;;18.40;100.00;95400.47;4935844;28;20240;-75
2023/08/10 08:53:50;;;;;;;3.23;2.83;;;;;;;18.52;98.35;95398.59;4953570;28;20239;-75
2023/08/10 08:56:16;;;;;;;3.60;2.70;;;;;;;18.42;98.25;95401.03;4946704;28;20236;-74
2023/08/10 08:58:41;;;;;;;3.93;2.60;;;;;;;18.50;97.80;95400.69;4951291;28;20771;-76
2023/08/10 09:01:07;;;;;;;4.43;2.70;;;;;;;18.54;100.00;95407.13;4949103;28;20483;-76
2023/08/10 09:03:33;;;;;;;4.20;2.60;;;;;;;18.76;96.53;95410.72;4951373;28;20225;-76
2023/08/10 09:05:58;;;;;;;4.47;2.60;;;;;;;18.89;95.40;95408.81;4937293;28;20290;-75
2023/08/10 09:08:24;;;;;;;3.43;2.70;;;;;;;18.88;94.82;95407.19;4937526;28;20240;-75
2023/08/10 09:10:49;;;;;;;3.87;2.90;;;;;;;18.81;95.60;95408.16;4954985;28;20229;-75
2023/08/10 09:13:18;;;;;;;4.93;2.80;;;;;;;19.01;94.15;95402.38;4955193;28;20269;-73
2023/08/10 09:15:46;;;;;;;5.30;2.90;;;;;;;19.19;90.93;95393.41;4938571;28;20297;-72
2023/08/10 09:18:12;;;;;;;3.20;2.70;;;;;;;19.06;92.89;95402.47;4950674;28;20243;-72
2023/08/10 09:20:38;;;;;;;7.27;2.50;;;;;;;19.06;92.53;95409.66;4965423;28;20679;-72
2023/08/10 09:23:04;;;;;;;4.63;2.70;;;;;;;19.00;90.80;95405.28;4936031;28;20232;-74
2023/08/10 09:25:35;;;;;;;5.03;2.70;;;;;;;19.01;92.06;95406.91;4948584;28;20236;-72
2023/08/10 09:28:01;;;;;;;4.37;2.50;;;;;;;18.92;91.08;95403.00;4936130;28;20666;-74
2023/08/10 09:30:26;;;;;;;3.50;2.50;;;;;;;18.84;89.69;95410.31;4943313;28;20233;-72
2023/08/10 09:32:52;;;;;;;3.40;2.80;;;;;;;18.95;92.80;95405.19;4935149;28;20623;-73
2023/08/10 09:35:18;;;;;;;3.80;3.00;;;;;;;18.95;93.51;95405.19;4951780;28;20236;-73
2023/08/10 09:37:47;;;;;;;4.13;2.80;;;;;;;19.04;92.74;95401.91;4932863;28;20252;-73
2023/08/10 09:40:14;;;;;;;4.17;3.57;;;;;;;19.00;93.80;95395.50;4940684;28;20347;-72
2023/08/10 09:42:40;;;;;;;5.93;3.83;;;;;;;19.21;92.60;95393.97;4949852;28;20233;-73
2023/08/10 09:45:10;;;;;;;4.63;3.20;;;;;;;19.15;89.91;95394.94;4937984;28;20305;-72
2023/08/10 09:47:37;;;;;;;3.70;2.63;;;;;;;19.29;90.07;95389.06;4942761;28;20775;-72
2023/08/10 09:50:05;;;;;;;4.07;2.67;;;;;;;19.35;87.77;95392.59;4931841;28;20736;-72
2023/08/10 09:52:33;;;;;;;4.63;3.10;;;;;;;19.35;89.39;95381.97;4943916;28;20235;-72
2023/08/10 09:54:59;;;;;;;4.60;3.00;;;;;;;19.55;87.64;95384.16;4940862;28;20745;-74
2023/08/10 09:57:25;;;;;;;5.03;3.40;;;;;;;19.73;88.92;95373.25;4949077;28;20272;-72
2023/08/10 09:59:57;;;;;;;5.07;3.00;;;;;;;19.72;90.94;95383.09;4932552;28;20236;-71
2023/08/10 10:02:23;;;;;;;4.57;3.20;;;;;;;19.78;91.69;95379.44;4938097;28;20637;-71
2023/08/10 10:04:49;;;;;;;4.70;3.27;;;;;;;19.81;91.36;95375.50;4958185;28;20228;-71
2023/08/10 10:07:16;;;;;;;6.23;3.23;;;;;;;19.84;91.16;95383.81;4950614;28;20289;-73
2023/08/10 10:09:45;;;;;;;4.37;2.90;;;;;;;19.72;87.47;95376.97;4951390;28;20479;-73
2023/08/10 10:12:12;;;;;;;4.67;3.40;;;;;;;19.74;88.36;95378.34;4928200;28;20224;-73
2023/08/10 10:14:43;;;;;;;5.30;3.00;;;;;;;19.89;90.84;95378.56;4939249;28;20240;-72
2023/08/10 10:17:13;;;;;;;5.03;3.47;;;;;;;19.94;87.89;95373.28;4989975;28;20392;-72
2023/08/10 10:19:39;;;;;;;7.37;3.20;;;;;;;19.81;87.58;95380.81;4983278;28;20236;-72
2023/08/10 10:22:05;;;;;;;6.80;3.07;;;;;;;19.91;87.53;95379.13;4990686;28;20233;-72
2023/08/10 10:24:33;;;;;;;3.33;2.17;;;;;;;20.02;81.37;95372.88;4965005;28;20621;-72
2023/08/10 10:27:08;;;;;;;2.73;2.10;;;;;;;19.99;80.56;95383.19;4933588;29;20434;-73
2023/08/10 10:29:51;;;;;;;4.27;2.00;;;;;;;20.05;81.41;95377.69;4943593;28;20240;-72
2023/08/10 10:32:18;;;;;;;3.03;2.30;;;;;;;20.33;80.51;95374.06;4959308;28;20241;-72
2023/08/10 10:34:44;;;;;;;2.93;2.50;;;;;;;20.32;80.22;95382.28;4934149;28;20298;-73
2023/08/10 10:37:18;;;;;;;4.17;2.60;;;;;;;20.43;83.46;95378.69;4933536;28;20733;-71
2023/08/10 10:39:49;;;;;;;3.53;2.53;;;;;;;20.47;81.69;95374.47;4952508;28;20235;-72
2023/08/10 10:42:18;;;;;;;5.73;2.40;;;;;;;20.32;83.69;95376.97;4920350;28;20705;-72
2023/08/10 10:45:07;;;;;;;3.00;2.27;;;;;;;20.35;82.23;95369.28;4957898;28;20306;-72
2023/08/10 10:47:37;;;;;;;4.90;2.80;;;;;;;20.24;86.48;95377.41;4933515;28;20717;-71
2023/08/10 10:50:17;;;;;;;2.50;2.10;;;;;;;20.30;82.56;95374.56;4926528;28;20251;-71
2023/08/10 10:52:55;;;;;;;2.37;1.90;;;;;;;20.37;86.51;95377.03;4950976;28;20262;-73
2023/08/10 10:55:28;;;;;;;2.40;2.10;;;;;;;20.46;79.90;95375.53;4947951;28;20247;-71
2023/08/10 10:57:53;;;;;;;2.30;1.93;;;;;;;20.49;78.22;95375.06;4919729;28;20232;-71
2023/08/10 11:00:20;;;;;;;2.60;2.00;;;;;;;20.44;76.37;95375.00;4953260;28;20236;-70
2023/08/10 11:02:46;;;;;;;2.57;1.90;;;;;;;20.52;77.09;95375.34;4952507;28;20306;-71
2023/08/10 11:05:13;;;;;;;1.93;1.80;;;;;;;20.55;79.85;95371.38;4935581;28;20327;-71
2023/08/10 11:07:46;;;;;;;4.00;2.00;;;;;;;20.50;79.85;95363.34;4945325;28;20241;-70
2023/08/10 11:10:11;;;;;;;5.83;2.10;;;;;;;20.52;81.09;95372.69;4921804;28;20248;-71
2023/08/10 11:12:38;;;;;;;3.10;2.10;;;;;;;20.40;82.73;95368.53;4942397;28;20228;-75
2023/08/10 11:15:05;;;;;;;2.90;2.00;;;;;;;20.42;82.56;95366.47;4924529;28;20228;-76
2023/08/10 11:17:31;;;;;;;2.00;1.80;;;;;;;20.52;78.95;95370.03;4946030;28;20236;-76
2023/08/10 11:19:57;;;;;;;3.80;2.00;;;;;;;20.66;80.61;95367.75;4923345;28;20244;-77
2023/08/10 11:22:23;;;;;;;2.27;1.80;;;;;;;20.76;78.79;95370.53;4922920;28;20249;-76
2023/08/10 11:24:48;;;;;;;1.97;1.87;;;;;;;20.76;80.51;95374.00;4955481;28;20262;-77
2023/08/10 11:27:14;;;;;;;2.57;1.70;;;;;;;20.80;76.94;95371.66;4950573;28;20236;-75